createdAt,value
2023-01-26T00:03:05.678Z,0.5
2023-01-26T00:08:43.386Z,0.4
2023-01-26T00:14:18.448Z,0.4
2023-01-26T00:19:28.152Z,0.4
2023-01-26T00:25:19.255Z,0.4
2023-01-26T00:30:43.226Z,0.4
2023-01-26T00:36:20.455Z,0.4
2023-01-26T00:41:47.476Z,0.4
2023-01-26T00:47:31.311Z,0.4
2023-01-26T00:52:52.637Z,0.3
2023-01-26T00:58:22.535Z,0.3
2023-01-26T01:04:04.207Z,0.3
2023-01-26T01:09:24.324Z,0.3
2023-01-26T01:15:08.834Z,0.3
2023-01-26T01:20:52.723Z,0.3
2023-01-26T01:26:09.660Z,0.3
2023-01-26T01:31:41.346Z,0.3
2023-01-26T01:37:35.104Z,0.3
2023-01-26T01:42:42.279Z,0.3
2023-01-26T01:48:24.810Z,0.3
2023-01-26T01:54:06.984Z,0.3
2023-01-26T01:59:29.968Z,0.3
2023-01-26T02:05:18.080Z,0.2
2023-01-26T02:10:38.675Z,0.2
2023-01-26T02:16:22.898Z,0.2
2023-01-26T02:21:56.137Z,0.2
2023-01-26T02:27:16.642Z,0.1
2023-01-26T02:32:59.613Z,0.1
2023-01-26T02:38:16.619Z,0
2023-01-26T02:43:54.776Z,0.1
2023-01-26T02:49:44.138Z,0.1
2023-01-26T02:55:01.241Z,0.1
2023-01-26T03:00:28.073Z,0.1
2023-01-26T03:05:58.549Z,0.1
2023-01-26T03:11:45.134Z,0
2023-01-26T03:17:29.936Z,0
2023-01-26T03:22:38.239Z,0
2023-01-26T03:28:12.627Z,0.1
2023-01-26T03:33:55.933Z,0.1
2023-01-26T03:39:38.804Z,0
2023-01-26T03:44:52.338Z,0
2023-01-26T03:50:20.876Z,0
2023-01-26T03:56:04.317Z,0
2023-01-26T04:01:37.820Z,0
2023-01-26T04:07:16.986Z,0.1
2023-01-26T04:12:49.331Z,0.1
2023-01-26T04:18:28.727Z,0.1
2023-01-26T04:23:50.358Z,0.1
2023-01-26T04:29:13.347Z,0
2023-01-26T04:34:47.525Z,0
2023-01-26T04:40:32.397Z,0
2023-01-26T04:45:49.551Z,0
2023-01-26T04:51:25.746Z,0
2023-01-26T04:57:20.410Z,0
2023-01-26T05:02:49.168Z,0
2023-01-26T05:08:26.178Z,0.1
2023-01-26T05:13:35.509Z,0
2023-01-26T05:19:32.698Z,0
2023-01-26T05:25:01.608Z,0
2023-01-26T05:30:14.866Z,0
2023-01-26T05:36:12.204Z,0
2023-01-26T05:41:35.067Z,0
2023-01-26T05:46:53.721Z,0.1
2023-01-26T05:52:45.951Z,0
2023-01-26T05:58:04.259Z,0
2023-01-26T06:03:57.077Z,0
2023-01-26T06:09:21.723Z,0
2023-01-26T06:14:37.770Z,0
2023-01-26T06:20:08.940Z,0
2023-01-26T06:26:00.571Z,0
2023-01-26T06:31:25.747Z,0
2023-01-26T06:37:14.776Z,0.1
2023-01-26T06:42:23.253Z,0.1
2023-01-26T06:48:12.139Z,0.1
2023-01-26T06:53:38.331Z,0.1
2023-01-26T06:59:20.433Z,0.1
2023-01-26T07:04:45.589Z,0.1
2023-01-26T07:10:22.059Z,0.1
2023-01-26T07:16:04.267Z,0.1
2023-01-26T07:21:24.095Z,0.1
2023-01-26T07:26:49.687Z,0.2
2023-01-26T07:32:17.859Z,0.2
2023-01-26T07:38:08.973Z,0.2
2023-01-26T07:43:26.608Z,0.2
2023-01-26T07:49:13.246Z,0.2
2023-01-26T07:54:32.338Z,0.2
2023-01-26T08:00:03.306Z,0.3
2023-01-26T08:05:54.599Z,0.3
2023-01-26T08:11:26.321Z,0.3
2023-01-26T08:16:46.013Z,0.3
2023-01-26T08:22:41.913Z,0.3
2023-01-26T08:27:59.603Z,0.3
2023-01-26T08:33:45.760Z,0.3
2023-01-26T08:38:53.278Z,0.3
2023-01-26T08:44:29.102Z,0.3
2023-01-26T08:50:17.431Z,0.4
2023-01-26T08:55:59.195Z,0.3
2023-01-26T09:01:32.937Z,0.3
2023-01-26T09:06:45.424Z,0.3
2023-01-26T09:12:19.638Z,0.3
2023-01-26T09:18:00.803Z,0.3
2023-01-26T09:23:48.126Z,0.4
2023-01-26T09:29:09.041Z,0.4
2023-01-26T09:34:34.964Z,0.4
2023-01-26T09:40:13.826Z,0.4
2023-01-26T09:45:58.629Z,0.4
2023-01-26T09:51:32.044Z,0.4
2023-01-26T09:56:55.277Z,0.5
2023-01-26T10:02:27.192Z,0.4
2023-01-26T10:08:17.490Z,0.5
2023-01-26T10:13:51.642Z,0.4
2023-01-26T10:19:03.651Z,0.4
2023-01-26T10:24:59.745Z,0.4
2023-01-26T10:30:20.177Z,0.4
2023-01-26T10:35:49.284Z,0.5
2023-01-26T10:41:22.586Z,0.5
2023-01-26T10:47:16.168Z,0.5
2023-01-26T10:52:46.653Z,0.5
2023-01-26T10:58:08.175Z,0.5
2023-01-26T11:03:48.440Z,0.5
2023-01-26T11:09:23.773Z,0.5
2023-01-26T11:14:50.245Z,0.5
2023-01-26T11:20:21.128Z,0.5
2023-01-26T11:26:12.054Z,0.6
2023-01-26T11:31:39.506Z,0.6
2023-01-26T11:36:59.669Z,0.6
2023-01-26T11:42:55.516Z,0.7
2023-01-26T11:48:06.812Z,0.7
2023-01-26T11:53:40.425Z,0.7
2023-01-26T11:59:36.645Z,0.7
2023-01-26T12:05:10.585Z,0.8
2023-01-26T12:10:47.133Z,0.7
2023-01-26T12:15:57.761Z,0.7
2023-01-26T12:21:40.041Z,0.7
2023-01-26T12:27:32.106Z,0.6
2023-01-26T12:32:55.188Z,0.7
2023-01-26T12:38:18.092Z,0.6
2023-01-26T12:44:11.497Z,0.6
2023-01-26T12:49:30.203Z,0.6
2023-01-26T12:55:02.827Z,0.6
2023-01-26T13:00:34.479Z,0.7
2023-01-26T13:06:03.106Z,0.6
2023-01-26T13:11:44.984Z,0.6
2023-01-26T13:17:21.360Z,0.6
2023-01-26T13:22:57.398Z,0.6
2023-01-26T13:28:35.243Z,0.6
2023-01-26T13:34:03.654Z,0.6
2023-01-26T13:39:23.106Z,0.6
2023-01-26T13:45:01.996Z,0.6
2023-01-26T13:50:37.032Z,0.6
2023-01-26T13:56:11.790Z,0.5
2023-01-26T14:01:49.313Z,0.5
2023-01-26T14:07:32.110Z,0.5
2023-01-26T14:13:00.985Z,0.5
2023-01-26T14:18:24.502Z,0.5
2023-01-26T14:24:12.517Z,0.5
2023-01-26T14:29:28.027Z,0.5
2023-01-26T14:35:16.317Z,0.5
2023-01-26T14:40:33.650Z,0.5
2023-01-26T14:46:32.616Z,0.4
2023-01-26T14:51:53.439Z,0.5
2023-01-26T14:57:38.201Z,0.5
2023-01-26T15:03:09.301Z,0.4
2023-01-26T15:08:39.088Z,0.4
2023-01-26T15:14:05.730Z,0.4
2023-01-26T15:19:57.365Z,0.3
2023-01-26T15:25:30.977Z,0.4
2023-01-26T15:30:54.334Z,0.4
2023-01-26T15:36:34.158Z,0.4
2023-01-26T15:41:44.850Z,0.3
2023-01-26T15:47:19.830Z,0.3
2023-01-26T15:53:10.595Z,0.3
2023-01-26T15:58:50.203Z,0.3
2023-01-26T16:04:21.570Z,0.3
2023-01-26T16:21:00.446Z,0.2
2023-01-26T17:22:18.278Z,0
2023-01-26T17:38:50.926Z,0.2
2023-01-26T18:40:04.934Z,0
2023-01-26T19:19:07.317Z,0
2023-01-26T19:24:46.771Z,-0.1
2023-01-26T19:30:11.917Z,-0.1
2023-01-26T19:36:00.688Z,0
2023-01-26T19:41:26.566Z,0
2023-01-26T19:46:52.751Z,0
2023-01-26T19:52:15.190Z,0
2023-01-26T19:57:50.120Z,0
2023-01-26T20:03:25.758Z,0
2023-01-26T20:09:06.879Z,0
2023-01-26T20:14:38.054Z,0
2023-01-26T20:20:11.130Z,0
2023-01-26T20:31:21.893Z,0
2023-01-26T20:37:07.641Z,-0.1
2023-01-26T20:42:26.471Z,-0.1
2023-01-26T20:48:02.473Z,-0.1
2023-01-26T20:53:39.376Z,-0.1
2023-01-26T20:59:20.475Z,-0.1
2023-01-26T21:04:47.057Z,-0.1
2023-01-26T21:10:08.860Z,-0.1
2023-01-26T21:15:44.125Z,-0.2
2023-01-26T21:21:31.604Z,-0.2
2023-01-26T21:27:06.944Z,-0.2
2023-01-26T21:32:28.342Z,-0.2
2023-01-26T21:38:08.374Z,-0.3
2023-01-26T21:43:53.711Z,-0.3
2023-01-26T21:49:00.487Z,-0.3
2023-01-26T21:54:50.573Z,-0.3
2023-01-26T22:00:33.369Z,-0.3
2023-01-26T22:05:55.800Z,-0.4
2023-01-26T22:11:15.292Z,-0.5
2023-01-26T22:16:58.512Z,-0.5
2023-01-26T22:22:23.479Z,-0.5
2023-01-26T22:28:00.324Z,-0.5
2023-01-26T22:33:27.372Z,-0.5
2023-01-26T22:39:26.040Z,-0.5
2023-01-26T22:44:36.645Z,-0.5
2023-01-26T22:50:15.677Z,-0.5
2023-01-26T22:56:07.295Z,-0.5
2023-01-26T23:01:40.660Z,-0.5
2023-01-26T23:06:56.713Z,-0.6
2023-01-26T23:12:22.745Z,-0.6
2023-01-26T23:18:21.377Z,-0.7
2023-01-26T23:23:32.092Z,-0.8
2023-01-26T23:29:20.185Z,-0.8
2023-01-26T23:35:03.835Z,-0.7
2023-01-26T23:40:21.449Z,-0.7
2023-01-26T23:46:08.079Z,-0.8
2023-01-26T23:51:44.657Z,-0.8
2023-01-26T23:57:06.164Z,-0.8
